Bern, ID (83220)

8:03 AM MDT on May 25, 2017 (GMT -0600)
STONEY | | Change Station
Active Advisory: Flood Warning

Elev 5955 ft 42.32 °N, 111.30 °W | Updated 5 minutes ago

Clear
Clear
47.0 °F
Feels Like 47 °F
N
3.0
Wind Variable Wind from WNW
Gusts 3.0 mph

Today
High -- | Low -- °F
--% Chance of Precip.
Yesterday
High -- | Low -- °F
Precip. -- in
Pressure 29.75 in
Visibility 10.0 miles
Clouds Clear
Windchill 47 °F
Dew Point 34 °F
Humidity 62%
Rainfall 0.05 in
Snow Depth Not available.
5:55 AM 8:50 PM
Waning Crescent, 0% visible
METAR KAFO 251355Z AUTO 00000KT 10SM CLR 05/01 A2975 RMK AO2 TSNO
Pressure 29.75 in
Visibility 10.0 miles
Clouds Clear
Windchill 47 °F
Dew Point 34 °F
Humidity 62%
Rainfall 0.05 in
Snow Depth Not available.
5:55 AM 8:50 PM
Waning Crescent, 0% visible
METAR KAFO 251355Z AUTO 00000KT 10SM CLR 05/01 A2975 RMK AO2 TSNO

Get Your Daily Forecast Email!

Thanks for signing up!

Be on the lookout for a verification email in your inbox.

You'll start receiving severe weather alerts in your inbox..

×

10-Day Weather Forecast

Almanac

Astronomy

May. 25, 2017 Rise Set
Actual Time
Civil Twilight
Nautical Twilight
Astronomical Twilight
Moon
Length of Visible Light
Length of Day
Tomorrow will be .
, % of the Moon is Illuminated

Today's Extremes

State Highs State Lows

Community

WunderPhotos

Category 6

Welcome to Category 6. This is the collective home for Weather Underground's featured writeups by Dr. Jeff Masters (right), Bob Henson (left), Chris Burt, and other regular contributors.

Nearby

Air Quality

  Air Quality AQ Index Pollutant
Not available.

Snow Depth

Station Depth Elevation

Earthquake Activity

City Distance Mag. Time & Date
Minimum magnitude displayed is 2.5.

Coastal Water Temperatures

Place Temperature

Stations

Nearby Weather Stations

Station Location Temp. Windchill Dew Point Humidity Wind Precip. Elev Updated Type
                   

Watches & Warnings

Flood Warning
Issued: 12:06 PM MDT May. 24, 2017 – National Weather Service

The Flood Warning continues for
The Bear river at border.
* At 11:30 am Wednesday the stage was 7.9 feet.
* Flood stage is 7.5 feet.
* Minor flooding is occurring and minor flooding is forecast.
* Forecast... the river will continue rising to near 8.2 feet by
Friday evening. Additional rises may be possible thereafter.
* Impact... at 7.5 feet... water will begin to encroach on Pegram Road
just north of Pegram. Lowland flooding of fields and pasture land
will occur. Driveways to low lying homes next to the river near
Dingle may have water across them. Some basements of low lying
homes next to the river will start to have water come in them.



                       Fld observed forecast 6 am
location stg stg day time Thu Fri Sat

Bear River
Bear River at border 7.5 7.9 Wed 11 am 7.9 8.1 8.1




Lat... Lon 4218 11126 4210 11114 4216 11105 4224 11105
      4220 11112 4225 11126